Time;durP1;ratioP1;P1;durP2;ratioP2;P2;SDS_P1;SDS_P2;PMS_P1;PMS_P2;Temp;Humidity;BMP_temperature;BMP_pressure;BME280_temperature;BME280_humidity;BME280_pressure;Samples;Min_cycle;Max_cycle;Signal;HPM_P1;HPM_P2
2022/01/04 00:01:27;;;;;;;3.97;2.73;;;;;;;;;;5120617;27;20261;-81
2022/01/04 00:03:55;;;;;;;3.30;2.90;;;;;;;;;;5119971;28;20304;-81
2022/01/04 00:06:22;;;;;;;3.30;3.00;;;;;;;;;;5120069;28;20197;-81
2022/01/04 00:08:50;;;;;;;2.63;2.43;;;;;;;;;;5121415;28;20761;-80
2022/01/04 00:11:20;;;;;;;3.67;3.23;;;;;;;;;;5123535;27;20660;-81
2022/01/04 00:13:48;;;;;;;3.00;2.70;;;;;;;;;;5119894;28;20247;-81
2022/01/04 00:16:15;;;;;;;2.90;2.43;;;;;;;;;;5114995;28;20272;-81
2022/01/04 00:18:46;;;;;;;2.50;2.30;;;;;;;;;;5119873;28;20197;-80
2022/01/04 00:21:13;;;;;;;2.60;2.30;;;;;;;;;;5120334;28;20198;-81
2022/01/04 00:23:40;;;;;;;2.20;2.00;;;;;;;;;;5121517;28;20640;-80
2022/01/04 00:26:09;;;;;;;1.90;1.60;;;;;;;;;;5123312;27;20289;-80
2022/01/04 00:28:36;;;;;;;2.93;1.50;;;;;;;;;;5121536;27;20237;-81
2022/01/04 00:31:04;;;;;;;1.80;1.60;;;;;;;;;;5119642;28;20229;-81
2022/01/04 00:33:31;;;;;;;2.00;1.80;;;;;;;;;;5120308;28;20198;-81
2022/01/04 00:35:58;;;;;;;2.00;1.70;;;;;;;;;;5119256;27;20194;-81
2022/01/04 00:38:25;;;;;;;1.93;1.73;;;;;;;;;;5123183;27;20221;-81
2022/01/04 00:40:52;;;;;;;2.27;1.60;;;;;;;;;;5114266;27;20241;-81
2022/01/04 00:43:21;;;;;;;1.63;1.37;;;;;;;;;;5123073;27;20276;-81
2022/01/04 00:45:49;;;;;;;1.23;1.00;;;;;;;;;;5116494;27;20288;-81
2022/01/04 00:51:01;;;;;;;1.10;0.93;;;;;;;;;;5113357;28;20598;-81
2022/01/04 00:53:28;;;;;;;1.43;1.00;;;;;;;;;;5111571;28;20297;-81
2022/01/04 00:55:55;;;;;;;1.73;0.90;;;;;;;;;;5112069;28;20217;-80
2022/01/04 00:58:24;;;;;;;1.10;0.80;;;;;;;;;;5124808;28;20232;-80
2022/01/04 01:00:51;;;;;;;0.70;0.70;;;;;;;;;;5119344;27;20308;-81
2022/01/04 01:03:18;;;;;;;0.70;0.67;;;;;;;;;;5131844;27;20224;-80
2022/01/04 01:05:46;;;;;;;1.20;1.00;;;;;;;;;;5129128;27;20284;-80
2022/01/04 01:08:13;;;;;;;1.30;1.10;;;;;;;;;;5120192;27;20198;-81
2022/01/04 01:10:47;;;;;;;1.17;0.67;;;;;;;;;;5121622;27;20280;-80
2022/01/04 01:13:14;;;;;;;0.53;0.50;;;;;;;;;;5123873;27;20252;-81
2022/01/04 01:15:45;;;;;;;0.63;0.30;;;;;;;;;;5117029;27;20277;-81
2022/01/04 01:18:13;;;;;;;0.50;0.30;;;;;;;;;;5134157;27;20193;-81
2022/01/04 01:20:40;;;;;;;0.60;0.50;;;;;;;;;;5133794;27;20704;-81
2022/01/04 01:23:08;;;;;;;0.23;0.20;;;;;;;;;;5132732;27;20283;-80
2022/01/04 01:25:35;;;;;;;1.03;0.30;;;;;;;;;;5134792;27;20216;-80
2022/01/04 01:28:02;;;;;;;0.47;0.30;;;;;;;;;;5134717;27;20721;-81
2022/01/04 01:30:32;;;;;;;0.30;0.20;;;;;;;;;;5118596;27;20290;-80
2022/01/04 01:33:01;;;;;;;0.27;0.17;;;;;;;;;;5120924;27;20194;-80
2022/01/04 01:35:28;;;;;;;0.40;0.20;;;;;;;;;;5114355;27;20221;-80
2022/01/04 01:37:55;;;;;;;0.40;0.20;;;;;;;;;;5114630;28;20233;-80
2022/01/04 01:40:22;;;;;;;0.50;0.20;;;;;;;;;;5120248;27;20611;-81
2022/01/04 01:42:50;;;;;;;0.50;0.30;;;;;;;;;;5128227;27;20617;-80
2022/01/04 01:45:18;;;;;;;1.30;0.30;;;;;;;;;;5132439;27;20304;-81
2022/01/04 01:47:45;;;;;;;0.43;0.30;;;;;;;;;;5123072;27;20198;-81
2022/01/04 01:50:14;;;;;;;0.97;0.30;;;;;;;;;;5114457;27;20279;-80
2022/01/04 01:52:42;;;;;;;0.40;0.20;;;;;;;;;;5122760;27;20267;-81
2022/01/04 01:55:10;;;;;;;0.20;0.10;;;;;;;;;;5129541;27;20283;-81
2022/01/04 01:57:38;;;;;;;0.40;0.20;;;;;;;;;;5125469;27;20290;-80
2022/01/04 02:00:06;;;;;;;0.73;0.30;;;;;;;;;;5120758;27;20302;-81
2022/01/04 02:02:33;;;;;;;0.60;0.40;;;;;;;;;;5134331;27;20231;-81
2022/01/04 02:05:00;;;;;;;0.60;0.50;;;;;;;;;;5119467;27;20771;-81
2022/01/04 02:07:31;;;;;;;0.67;0.60;;;;;;;;;;5113595;27;20280;-82
2022/01/04 02:10:03;;;;;;;1.80;0.40;;;;;;;;;;5115446;27;20669;-81
2022/01/04 02:12:31;;;;;;;1.63;0.60;;;;;;;;;;5122904;27;20660;-80
2022/01/04 02:14:59;;;;;;;0.73;0.60;;;;;;;;;;5125921;27;20196;-80
2022/01/04 02:17:26;;;;;;;2.07;0.90;;;;;;;;;;5121791;27;20656;-81
2022/01/04 02:19:56;;;;;;;1.20;0.80;;;;;;;;;;5131890;27;20733;-81
2022/01/04 02:22:24;;;;;;;1.30;0.60;;;;;;;;;;5124914;27;20204;-81
2022/01/04 02:24:51;;;;;;;1.40;0.70;;;;;;;;;;5127865;27;20240;-81
2022/01/04 02:27:18;;;;;;;1.70;0.67;;;;;;;;;;5121193;27;20288;-81
2022/01/04 02:29:46;;;;;;;0.90;0.60;;;;;;;;;;5125972;27;20239;-81
2022/01/04 02:32:14;;;;;;;3.50;0.90;;;;;;;;;;5122107;27;20272;-81
2022/01/04 02:34:41;;;;;;;2.70;0.73;;;;;;;;;;5123487;27;20283;-81
2022/01/04 02:37:12;;;;;;;1.17;0.70;;;;;;;;;;5121462;27;20233;-81
2022/01/04 02:39:40;;;;;;;2.93;0.80;;;;;;;;;;5122607;27;20337;-81
2022/01/04 02:42:07;;;;;;;2.60;0.77;;;;;;;;;;5122100;27;20231;-81
2022/01/04 02:44:34;;;;;;;0.93;0.70;;;;;;;;;;5121605;27;20357;-80
2022/01/04 02:47:02;;;;;;;0.60;0.50;;;;;;;;;;5127981;27;20225;-81
2022/01/04 02:49:29;;;;;;;1.20;0.60;;;;;;;;;;5121654;27;20623;-81
2022/01/04 02:51:56;;;;;;;1.50;0.80;;;;;;;;;;5122756;27;20196;-81
2022/01/04 02:54:25;;;;;;;1.20;0.50;;;;;;;;;;5122124;27;20221;-81
2022/01/04 02:56:52;;;;;;;0.90;0.70;;;;;;;;;;5124123;27;20659;-81
2022/01/04 02:59:19;;;;;;;3.40;0.80;;;;;;;;;;5127432;27;20284;-81
2022/01/04 03:01:46;;;;;;;1.83;0.63;;;;;;;;;;5121201;27;20235;-81
2022/01/04 03:04:14;;;;;;;1.23;0.90;;;;;;;;;;5123378;27;20272;-81
2022/01/04 03:06:41;;;;;;;2.53;1.00;;;;;;;;;;5124725;27;20286;-81
2022/01/04 03:09:08;;;;;;;2.40;1.00;;;;;;;;;;5122439;27;20220;-81
2022/01/04 03:11:37;;;;;;;2.50;1.00;;;;;;;;;;5124156;27;20885;-81
2022/01/04 03:14:04;;;;;;;3.17;1.00;;;;;;;;;;5116947;27;20229;-81
2022/01/04 03:16:31;;;;;;;1.60;1.00;;;;;;;;;;5124251;27;20206;-81
2022/01/04 03:19:06;;;;;;;2.83;1.20;;;;;;;;;;5123354;27;20232;-81
2022/01/04 03:21:33;;;;;;;1.93;1.30;;;;;;;;;;5123400;27;20200;-81
2022/01/04 03:24:01;;;;;;;2.07;1.30;;;;;;;;;;5115746;27;20284;-81
2022/01/04 03:26:28;;;;;;;1.77;1.60;;;;;;;;;;5112332;28;20291;-81
2022/01/04 03:28:57;;;;;;;3.07;1.67;;;;;;;;;;5112155;28;20247;-81
2022/01/04 03:31:24;;;;;;;2.70;1.90;;;;;;;;;;5111049;28;20237;-81
2022/01/04 03:33:52;;;;;;;2.87;2.00;;;;;;;;;;5110964;28;20240;-81
2022/01/04 03:36:20;;;;;;;3.20;2.10;;;;;;;;;;5111152;28;20588;-81
2022/01/04 03:38:49;;;;;;;2.00;1.80;;;;;;;;;;5111560;28;20200;-81
2022/01/04 03:41:16;;;;;;;2.47;1.90;;;;;;;;;;5111942;28;20201;-81
2022/01/04 03:43:44;;;;;;;3.07;2.10;;;;;;;;;;5111652;28;20295;-81
2022/01/04 03:46:12;;;;;;;2.57;1.93;;;;;;;;;;5111229;28;20305;-81
2022/01/04 03:48:40;;;;;;;2.80;1.73;;;;;;;;;;5111455;28;20716;-81
2022/01/04 03:51:08;;;;;;;2.27;1.80;;;;;;;;;;5119823;27;20229;-81
2022/01/04 03:53:37;;;;;;;2.07;1.80;;;;;;;;;;5125617;27;20227;-81
2022/01/04 03:56:05;;;;;;;2.60;1.60;;;;;;;;;;5125566;27;20760;-81
2022/01/04 03:58:32;;;;;;;2.60;1.67;;;;;;;;;;5121844;27;20295;-81
2022/01/04 04:01:00;;;;;;;2.90;1.57;;;;;;;;;;5123034;27;20742;-81
2022/01/04 04:03:30;;;;;;;2.33;1.80;;;;;;;;;;5115080;27;20208;-81
2022/01/04 04:05:57;;;;;;;2.20;1.57;;;;;;;;;;5123628;27;20742;-81
2022/01/04 04:08:24;;;;;;;4.07;1.97;;;;;;;;;;5119087;27;20296;-81
2022/01/04 04:10:51;;;;;;;2.40;1.90;;;;;;;;;;5120166;27;20291;-81
2022/01/04 04:13:18;;;;;;;2.40;1.67;;;;;;;;;;5125162;27;20280;-81
2022/01/04 04:15:46;;;;;;;4.20;1.63;;;;;;;;;;5120408;27;20814;-81
2022/01/04 04:18:14;;;;;;;3.30;1.70;;;;;;;;;;5120416;28;20280;-81
2022/01/04 04:20:43;;;;;;;2.20;1.40;;;;;;;;;;5119400;28;20205;-81
2022/01/04 04:23:11;;;;;;;2.53;1.50;;;;;;;;;;5118761;28;20197;-81
2022/01/04 04:25:39;;;;;;;1.87;1.60;;;;;;;;;;5131326;27;20246;-81
2022/01/04 04:28:06;;;;;;;2.67;1.57;;;;;;;;;;5119113;27;20287;-80
2022/01/04 04:30:34;;;;;;;2.20;1.70;;;;;;;;;;5111459;28;20280;-80
2022/01/04 04:33:01;;;;;;;2.40;1.63;;;;;;;;;;5110916;28;20690;-81
2022/01/04 04:35:29;;;;;;;2.20;1.53;;;;;;;;;;5111658;28;20232;-81
2022/01/04 04:37:59;;;;;;;2.20;1.50;;;;;;;;;;5111382;28;20198;-81
2022/01/04 04:40:26;;;;;;;2.53;1.93;;;;;;;;;;5111508;28;20198;-81
2022/01/04 04:42:53;;;;;;;2.70;1.60;;;;;;;;;;5112334;28;20229;-81
2022/01/04 04:45:21;;;;;;;1.80;1.43;;;;;;;;;;5115043;28;20701;-81
2022/01/04 04:47:48;;;;;;;3.77;1.30;;;;;;;;;;5115384;28;20282;-81
2022/01/04 04:50:15;;;;;;;1.73;1.30;;;;;;;;;;5115276;28;20220;-81
2022/01/04 04:52:42;;;;;;;1.47;1.20;;;;;;;;;;5114836;28;20244;-81
2022/01/04 04:55:12;;;;;;;1.30;1.03;;;;;;;;;;5114165;28;20288;-81
2022/01/04 04:57:39;;;;;;;1.60;1.27;;;;;;;;;;5115136;28;20285;-80
2022/01/04 05:00:08;;;;;;;2.67;1.30;;;;;;;;;;5114429;27;20319;-80
2022/01/04 05:02:35;;;;;;;1.47;1.23;;;;;;;;;;5115083;28;20695;-80
2022/01/04 05:05:02;;;;;;;5.33;1.40;;;;;;;;;;5114688;28;20252;-80
2022/01/04 05:07:30;;;;;;;3.77;1.30;;;;;;;;;;5115237;28;20282;-80
2022/01/04 05:09:57;;;;;;;1.83;1.30;;;;;;;;;;5128403;27;20283;-80
2022/01/04 05:12:25;;;;;;;2.23;1.43;;;;;;;;;;5135076;27;20246;-80
2022/01/04 05:14:53;;;;;;;3.10;1.20;;;;;;;;;;5134787;27;20242;-80
2022/01/04 05:17:20;;;;;;;1.80;1.30;;;;;;;;;;5121216;27;20284;-80
2022/01/04 05:19:47;;;;;;;2.60;1.47;;;;;;;;;;5115196;28;20284;-80
2022/01/04 05:22:14;;;;;;;3.10;1.30;;;;;;;;;;5114877;27;20636;-80
2022/01/04 05:24:42;;;;;;;2.63;1.50;;;;;;;;;;5114836;28;20281;-80
2022/01/04 05:27:09;;;;;;;3.37;1.60;;;;;;;;;;5114225;28;20230;-80
2022/01/04 05:29:37;;;;;;;3.03;1.70;;;;;;;;;;5115291;27;20625;-80
2022/01/04 05:32:05;;;;;;;3.17;2.00;;;;;;;;;;5135179;27;20716;-80
2022/01/04 05:34:32;;;;;;;2.37;1.70;;;;;;;;;;5134394;27;20284;-80
2022/01/04 05:37:00;;;;;;;3.10;1.47;;;;;;;;;;5132322;27;20232;-80
2022/01/04 05:39:27;;;;;;;3.13;1.83;;;;;;;;;;5121495;27;20204;-80
2022/01/04 05:41:55;;;;;;;2.83;1.77;;;;;;;;;;5130006;27;20283;-80
2022/01/04 05:44:22;;;;;;;4.97;1.97;;;;;;;;;;5133819;27;20223;-80
2022/01/04 05:46:50;;;;;;;4.23;2.27;;;;;;;;;;5121052;27;20264;-80
2022/01/04 05:49:18;;;;;;;2.83;2.07;;;;;;;;;;5114181;27;20285;-81
2022/01/04 05:51:45;;;;;;;3.23;2.47;;;;;;;;;;5114088;27;20281;-80
2022/01/04 05:54:12;;;;;;;5.37;2.67;;;;;;;;;;5118423;27;20225;-80
2022/01/04 05:56:39;;;;;;;3.97;2.57;;;;;;;;;;5113766;28;20300;-80
2022/01/04 05:59:07;;;;;;;4.63;2.80;;;;;;;;;;5129102;27;20232;-80
2022/01/04 06:01:34;;;;;;;5.20;3.00;;;;;;;;;;5131859;27;20315;-80
2022/01/04 06:04:02;;;;;;;4.73;3.03;;;;;;;;;;5114649;27;20194;-81
2022/01/04 06:06:29;;;;;;;6.60;3.77;;;;;;;;;;5130108;27;20249;-80
2022/01/04 06:08:57;;;;;;;6.10;4.20;;;;;;;;;;5126147;27;20232;-79
2022/01/04 06:11:55;;;;;;;11.73;4.73;;;;;;;;;;5134207;27;20631;-77
2022/01/04 06:17:08;;;;;;;8.73;5.00;;;;;;;;;;5127497;27;20210;-77
2022/01/04 06:19:37;;;;;;;11.23;5.73;;;;;;;;;;5133163;27;20286;-77
2022/01/04 06:22:04;;;;;;;9.90;5.63;;;;;;;;;;5129666;27;20279;-77
2022/01/04 06:24:31;;;;;;;8.73;5.97;;;;;;;;;;5115283;27;20779;-77
2022/01/04 06:26:59;;;;;;;11.17;6.57;;;;;;;;;;5132740;27;20314;-77
2022/01/04 06:29:26;;;;;;;10.07;6.57;;;;;;;;;;5125381;27;20277;-77
2022/01/04 06:31:53;;;;;;;11.83;6.90;;;;;;;;;;5135528;27;20284;-77
2022/01/04 06:34:20;;;;;;;10.17;6.73;;;;;;;;;;5126630;27;20635;-78
2022/01/04 06:36:49;;;;;;;10.00;7.07;;;;;;;;;;5125010;27;20279;-78
2022/01/04 06:39:17;;;;;;;10.90;7.10;;;;;;;;;;5117971;27;20209;-77
2022/01/04 06:41:44;;;;;;;10.97;7.60;;;;;;;;;;5120316;27;20229;-78
2022/01/04 06:44:11;;;;;;;11.17;7.70;;;;;;;;;;5129574;27;20283;-77
2022/01/04 06:46:44;;;;;;;13.43;8.60;;;;;;;;;;5113389;28;20780;-78
2022/01/04 06:49:12;;;;;;;11.30;8.30;;;;;;;;;;5113249;27;20665;-78
2022/01/04 06:51:40;;;;;;;12.50;7.90;;;;;;;;;;5137616;27;20207;-78
2022/01/04 06:54:08;;;;;;;11.73;8.90;;;;;;;;;;5131220;27;20205;-78
2022/01/04 06:56:35;;;;;;;13.27;8.60;;;;;;;;;;5113434;27;20246;-78
2022/01/04 06:59:03;;;;;;;14.27;9.70;;;;;;;;;;5116957;27;20286;-77
2022/01/04 07:01:30;;;;;;;11.00;8.40;;;;;;;;;;5125240;27;20228;-77
2022/01/04 07:03:57;;;;;;;13.53;8.13;;;;;;;;;;5124172;27;20279;-77
2022/01/04 07:06:24;;;;;;;11.33;7.70;;;;;;;;;;5118903;27;20305;-77
2022/01/04 07:08:52;;;;;;;11.87;8.00;;;;;;;;;;5121869;27;20198;-77
2022/01/04 07:11:20;;;;;;;11.77;8.20;;;;;;;;;;5117299;27;20621;-77
2022/01/04 07:13:48;;;;;;;11.40;7.53;;;;;;;;;;5121489;27;20203;-77
2022/01/04 07:16:15;;;;;;;11.47;7.50;;;;;;;;;;5123210;27;20276;-78
2022/01/04 07:18:46;;;;;;;9.90;7.47;;;;;;;;;;5132094;27;20203;-78
2022/01/04 07:21:14;;;;;;;12.67;7.37;;;;;;;;;;5132068;27;20190;-78
2022/01/04 07:23:41;;;;;;;11.27;6.33;;;;;;;;;;5131827;27;20201;-78
2022/01/04 07:26:11;;;;;;;12.63;7.33;;;;;;;;;;5114452;27;20905;-78
2022/01/04 07:28:41;;;;;;;10.87;7.43;;;;;;;;;;5130328;27;20197;-77
2022/01/04 07:31:08;;;;;;;12.07;7.87;;;;;;;;;;5131220;27;20209;-78
2022/01/04 07:33:35;;;;;;;10.53;7.50;;;;;;;;;;5119094;27;20222;-77
2022/01/04 07:36:03;;;;;;;10.77;6.43;;;;;;;;;;5115976;27;20287;-78
2022/01/04 07:38:30;;;;;;;10.53;6.57;;;;;;;;;;5118093;27;20236;-78
2022/01/04 07:40:57;;;;;;;9.40;6.47;;;;;;;;;;5111469;28;20284;-78
2022/01/04 07:43:25;;;;;;;8.53;5.73;;;;;;;;;;5111570;28;20232;-78
2022/01/04 07:45:53;;;;;;;7.90;5.10;;;;;;;;;;5111206;28;20307;-78
2022/01/04 07:48:21;;;;;;;7.97;5.30;;;;;;;;;;5128700;27;20197;-78
2022/01/04 07:50:49;;;;;;;10.60;5.50;;;;;;;;;;5114815;27;20225;-78
2022/01/04 07:53:16;;;;;;;10.20;5.17;;;;;;;;;;5127902;27;20204;-78
2022/01/04 07:55:44;;;;;;;9.30;5.43;;;;;;;;;;5111971;28;20317;-78
2022/01/04 07:58:11;;;;;;;9.87;5.13;;;;;;;;;;5123692;27;20201;-78
2022/01/04 08:00:38;;;;;;;7.67;5.10;;;;;;;;;;5119184;27;20772;-78
2022/01/04 08:03:10;;;;;;;9.67;4.90;;;;;;;;;;5129088;27;20196;-78
2022/01/04 08:05:37;;;;;;;8.00;4.50;;;;;;;;;;5124975;27;20673;-78
2022/01/04 08:08:05;;;;;;;8.40;4.67;;;;;;;;;;5122493;28;20283;-78
2022/01/04 08:10:32;;;;;;;12.63;5.00;;;;;;;;;;5125515;27;20206;-78
2022/01/04 08:12:59;;;;;;;10.87;4.70;;;;;;;;;;5118934;27;20285;-77
2022/01/04 08:15:27;;;;;;;8.13;5.00;;;;;;;;;;5121319;28;20282;-78
2022/01/04 08:17:54;;;;;;;11.20;5.17;;;;;;;;;;5126454;27;20193;-78
2022/01/04 08:20:23;;;;;;;10.43;5.40;;;;;;;;;;5128425;27;20906;-78
2022/01/04 08:22:50;;;;;;;12.43;4.83;;;;;;;;;;5120003;27;20208;-78
2022/01/04 08:25:17;;;;;;;10.87;5.03;;;;;;;;;;5133011;27;20281;-78
2022/01/04 08:27:45;;;;;;;16.37;5.37;;;;;;;;;;5117154;27;20647;-78
2022/01/04 08:30:13;;;;;;;6.57;5.07;;;;;;;;;;5126583;27;20247;-78
2022/01/04 08:32:41;;;;;;;8.83;5.40;;;;;;;;;;5121969;27;20291;-78
2022/01/04 08:35:09;;;;;;;12.73;5.57;;;;;;;;;;5117553;27;20633;-78
2022/01/04 08:37:37;;;;;;;10.50;5.43;;;;;;;;;;5117637;27;20220;-78
2022/01/04 08:40:06;;;;;;;9.47;6.00;;;;;;;;;;5125708;27;20302;-77
2022/01/04 08:42:33;;;;;;;10.00;5.60;;;;;;;;;;5127073;27;20251;-77
2022/01/04 08:45:01;;;;;;;12.20;6.80;;;;;;;;;;5119467;27;20276;-78
2022/01/04 08:47:28;;;;;;;11.90;7.00;;;;;;;;;;5131205;27;20309;-78
2022/01/04 08:49:55;;;;;;;10.67;7.00;;;;;;;;;;5123126;27;20285;-78
2022/01/04 08:52:22;;;;;;;13.47;7.00;;;;;;;;;;5125717;27;20288;-78
2022/01/04 08:54:51;;;;;;;12.77;6.60;;;;;;;;;;5121035;27;20200;-78
2022/01/04 08:57:18;;;;;;;17.17;7.37;;;;;;;;;;5126515;27;20758;-78
2022/01/04 08:59:47;;;;;;;12.23;6.97;;;;;;;;;;5113695;28;20890;-78
2022/01/04 09:02:14;;;;;;;12.87;8.30;;;;;;;;;;5114263;28;20198;-78
2022/01/04 09:04:41;;;;;;;15.23;8.07;;;;;;;;;;5113601;28;20298;-77
2022/01/04 09:07:08;;;;;;;13.00;7.27;;;;;;;;;;5113984;28;20693;-78
2022/01/04 09:09:36;;;;;;;16.33;7.13;;;;;;;;;;5113524;28;20279;-78
2022/01/04 09:12:05;;;;;;;14.87;6.60;;;;;;;;;;5114959;28;20280;-78
2022/01/04 09:14:42;;;;;;;14.07;6.40;;;;;;;;;;5124579;27;20316;-78
2022/01/04 09:19:55;;;;;;;13.33;6.67;;;;;;;;;;5134509;27;20315;-78
2022/01/04 09:22:22;;;;;;;14.97;7.40;;;;;;;;;;5135204;27;20280;-78
2022/01/04 09:24:50;;;;;;;16.00;6.93;;;;;;;;;;5131998;27;20211;-77
2022/01/04 09:27:18;;;;;;;16.00;7.10;;;;;;;;;;5115169;28;20302;-77
2022/01/04 09:29:45;;;;;;;13.40;6.63;;;;;;;;;;5117430;27;20291;-78
2022/01/04 09:32:16;;;;;;;12.47;6.57;;;;;;;;;;5125920;27;20219;-78
2022/01/04 09:34:43;;;;;;;12.17;6.73;;;;;;;;;;5130116;27;20705;-78
2022/01/04 09:37:11;;;;;;;10.57;5.87;;;;;;;;;;5120920;27;20280;-78
2022/01/04 09:39:38;;;;;;;17.20;6.87;;;;;;;;;;5122838;27;20321;-78
2022/01/04 09:42:07;;;;;;;9.37;5.60;;;;;;;;;;5131256;27;20276;-78
2022/01/04 09:44:36;;;;;;;10.53;5.70;;;;;;;;;;5121528;27;20197;-78
2022/01/04 09:47:04;;;;;;;11.80;5.93;;;;;;;;;;5122764;27;20308;-78
2022/01/04 09:49:33;;;;;;;8.83;5.27;;;;;;;;;;5121535;27;20203;-78
2022/01/04 09:52:01;;;;;;;12.43;4.73;;;;;;;;;;5125425;27;20193;-78
2022/01/04 09:54:28;;;;;;;11.90;5.17;;;;;;;;;;5128062;27;20563;-78
2022/01/04 09:56:55;;;;;;;13.00;5.00;;;;;;;;;;5120110;27;20331;-78
2022/01/04 09:59:23;;;;;;;14.03;4.53;;;;;;;;;;5124484;27;20207;-78
2022/01/04 10:01:55;;;;;;;13.97;5.10;;;;;;;;;;5121066;27;20707;-78
2022/01/04 10:04:24;;;;;;;12.60;5.07;;;;;;;;;;5112762;28;20660;-78
2022/01/04 10:06:59;;;;;;;9.17;4.40;;;;;;;;;;5124894;27;20224;-78
2022/01/04 10:09:35;;;;;;;9.53;4.40;;;;;;;;;;5123784;27;20224;-78
2022/01/04 10:12:05;;;;;;;8.10;4.43;;;;;;;;;;5112427;28;20243;-78
2022/01/04 10:14:35;;;;;;;14.17;5.23;;;;;;;;;;5112697;27;20212;-78
2022/01/04 10:17:07;;;;;;;11.17;4.80;;;;;;;;;;5113247;28;20201;-78
2022/01/04 10:19:35;;;;;;;13.50;6.43;;;;;;;;;;5112858;28;20201;-78
2022/01/04 10:22:13;;;;;;;18.07;5.83;;;;;;;;;;5117504;27;20631;-79
2022/01/04 10:24:41;;;;;;;10.27;5.00;;;;;;;;;;5130798;27;20232;-77
2022/01/04 10:27:28;;;;;;;14.67;4.37;;;;;;;;;;5130880;27;20300;-78
2022/01/04 10:30:20;;;;;;;9.27;4.00;;;;;;;;;;5124064;27;20380;-78
2022/01/04 10:32:50;;;;;;;10.93;3.93;;;;;;;;;;5104479;27;20937;-78
2022/01/04 10:35:22;;;;;;;11.90;4.30;;;;;;;;;;5116481;27;20296;-78
2022/01/04 10:37:49;;;;;;;14.07;3.90;;;;;;;;;;5122271;27;20733;-78
2022/01/04 10:40:17;;;;;;;13.30;4.80;;;;;;;;;;5122135;27;20284;-78
2022/01/04 10:42:44;;;;;;;16.03;7.07;;;;;;;;;;5123313;27;20296;-78
2022/01/04 10:45:28;;;;;;;15.63;6.17;;;;;;;;;;5124449;27;20439;-78
2022/01/04 10:47:57;;;;;;;16.73;7.83;;;;;;;;;;5117084;27;20373;-77
2022/01/04 10:50:31;;;;;;;14.20;9.53;;;;;;;;;;5127780;27;20211;-78
2022/01/04 10:52:59;;;;;;;16.77;9.40;;;;;;;;;;5119311;27;20289;-78
2022/01/04 10:55:31;;;;;;;17.67;8.27;;;;;;;;;;5113143;27;20205;-78
2022/01/04 10:57:58;;;;;;;15.33;9.80;;;;;;;;;;5123201;27;20262;-78
2022/01/04 11:00:26;;;;;;;16.37;7.60;;;;;;;;;;5132551;27;20320;-77
2022/01/04 11:02:53;;;;;;;11.27;4.70;;;;;;;;;;5124340;27;20196;-78
2022/01/04 11:05:23;;;;;;;11.20;4.70;;;;;;;;;;5112910;28;20236;-78
2022/01/04 11:08:00;;;;;;;14.00;5.60;;;;;;;;;;5115159;27;20300;-78
2022/01/04 11:10:28;;;;;;;11.47;4.83;;;;;;;;;;5128805;27;20207;-78
2022/01/04 11:12:57;;;;;;;12.37;3.83;;;;;;;;;;5113521;27;20198;-77
2022/01/04 11:15:24;;;;;;;9.77;4.50;;;;;;;;;;5121188;27;20293;-77
2022/01/04 11:17:52;;;;;;;11.90;3.80;;;;;;;;;;5118322;27;20221;-78
2022/01/04 11:20:19;;;;;;;13.23;3.80;;;;;;;;;;5132604;27;20284;-78
2022/01/04 11:22:49;;;;;;;8.90;3.80;;;;;;;;;;5124354;27;20285;-77
2022/01/04 11:25:19;;;;;;;11.27;3.50;;;;;;;;;;5112615;28;20289;-77
2022/01/04 11:27:47;;;;;;;9.43;3.00;;;;;;;;;;5112548;28;20232;-77
2022/01/04 11:30:16;;;;;;;12.60;3.43;;;;;;;;;;5115942;27;20224;-78
2022/01/04 11:32:45;;;;;;;13.43;3.10;;;;;;;;;;5124056;27;20243;-78
2022/01/04 11:35:16;;;;;;;12.07;3.40;;;;;;;;;;5126321;27;20285;-78
2022/01/04 11:37:51;;;;;;;10.03;2.70;;;;;;;;;;5126066;27;20211;-77
2022/01/04 11:40:28;;;;;;;13.07;3.07;;;;;;;;;;5124281;27;20236;-78
2022/01/04 11:42:55;;;;;;;9.13;2.57;;;;;;;;;;5127863;27;20596;-78
2022/01/04 11:45:46;;;;;;;7.50;2.37;;;;;;;;;;5124588;27;20279;-78
2022/01/04 11:48:30;;;;;;;9.53;2.53;;;;;;;;;;5131854;27;20228;-78
2022/01/04 11:50:58;;;;;;;9.07;2.70;;;;;;;;;;5125910;27;20284;-78
2022/01/04 11:53:25;;;;;;;11.63;2.80;;;;;;;;;;5114190;28;20235;-78
2022/01/04 11:55:55;;;;;;;12.00;2.73;;;;;;;;;;5117254;28;20309;-78
2022/01/04 11:58:26;;;;;;;11.47;2.70;;;;;;;;;;5131908;27;20232;-78
2022/01/04 12:01:01;;;;;;;13.90;3.00;;;;;;;;;;5120537;27;20311;-78
2022/01/04 12:03:41;;;;;;;9.13;2.87;;;;;;;;;;5128921;27;20208;-78
2022/01/04 12:06:09;;;;;;;11.93;2.53;;;;;;;;;;5113214;28;20556;-78
2022/01/04 12:08:37;;;;;;;5.90;2.17;;;;;;;;;;5124535;28;20255;-78
2022/01/04 12:11:19;;;;;;;7.73;2.40;;;;;;;;;;5120653;27;20288;-78
2022/01/04 12:13:48;;;;;;;7.97;2.70;;;;;;;;;;5116211;28;20246;-79
2022/01/04 12:16:16;;;;;;;11.43;3.60;;;;;;;;;;5130371;27;20386;-78
2022/01/04 12:19:01;;;;;;;12.37;2.63;;;;;;;;;;5125824;27;20279;-79
2022/01/04 12:21:29;;;;;;;11.77;3.00;;;;;;;;;;5129917;27;20232;-79
2022/01/04 12:23:57;;;;;;;9.30;2.10;;;;;;;;;;5111725;28;20277;-79
2022/01/04 12:26:27;;;;;;;10.50;1.40;;;;;;;;;;5123680;28;20901;-79
2022/01/04 12:29:12;;;;;;;5.17;1.17;;;;;;;;;;5118657;27;20252;-79
2022/01/04 12:31:46;;;;;;;5.80;0.80;;;;;;;;;;5128210;28;20228;-79
2022/01/04 12:34:26;;;;;;;6.47;1.07;;;;;;;;;;5117383;28;20219;-79
2022/01/04 12:36:53;;;;;;;6.40;1.27;;;;;;;;;;5132015;27;20287;-79
2022/01/04 12:39:22;;;;;;;4.47;0.97;;;;;;;;;;5123920;27;20277;-79
2022/01/04 12:41:51;;;;;;;8.23;1.43;;;;;;;;;;5122548;28;20340;-78
2022/01/04 12:44:23;;;;;;;3.90;1.00;;;;;;;;;;5130943;27;20200;-79
2022/01/04 12:46:51;;;;;;;6.83;1.40;;;;;;;;;;5112624;28;20205;-78
2022/01/04 12:49:20;;;;;;;7.20;1.50;;;;;;;;;;5128691;28;20673;-79
2022/01/04 12:51:48;;;;;;;11.10;3.40;;;;;;;;;;5130545;28;20570;-78
2022/01/04 12:54:17;;;;;;;8.73;2.80;;;;;;;;;;5110826;28;20618;-78
2022/01/04 12:56:45;;;;;;;6.60;1.90;;;;;;;;;;5115011;28;20643;-78
2022/01/04 12:59:29;;;;;;;7.50;2.10;;;;;;;;;;5125506;27;20276;-78
2022/01/04 13:01:57;;;;;;;7.07;2.30;;;;;;;;;;5112859;27;20293;-78
2022/01/04 13:04:26;;;;;;;4.67;2.17;;;;;;;;;;5118999;27;20205;-78
2022/01/04 13:06:53;;;;;;;6.27;1.80;;;;;;;;;;5133664;27;20200;-78
2022/01/04 13:09:21;;;;;;;4.33;1.20;;;;;;;;;;5124459;27;20213;-78
2022/01/04 13:11:49;;;;;;;3.87;1.03;;;;;;;;;;5132882;27;20281;-78
2022/01/04 13:14:21;;;;;;;3.27;0.93;;;;;;;;;;5120901;27;20592;-78
2022/01/04 13:16:49;;;;;;;5.07;0.83;;;;;;;;;;5129094;27;20205;-78
2022/01/04 13:19:18;;;;;;;2.20;0.90;;;;;;;;;;5119851;27;20197;-78
2022/01/04 13:21:46;;;;;;;4.70;1.10;;;;;;;;;;5122202;27;20290;-78
2022/01/04 13:24:28;;;;;;;3.70;1.10;;;;;;;;;;5131728;27;20201;-79
2022/01/04 13:26:55;;;;;;;3.47;1.50;;;;;;;;;;5120289;27;20668;-78
2022/01/04 13:29:25;;;;;;;5.03;1.13;;;;;;;;;;5130711;27;20311;-78
2022/01/04 13:32:06;;;;;;;2.90;0.60;;;;;;;;;;5119751;27;20229;-78
2022/01/04 13:34:33;;;;;;;4.37;1.00;;;;;;;;;;5114190;27;20205;-79
2022/01/04 13:37:01;;;;;;;3.33;0.77;;;;;;;;;;5117314;27;20292;-78
2022/01/04 13:39:28;;;;;;;5.13;1.00;;;;;;;;;;5134912;27;20276;-78
2022/01/04 13:41:56;;;;;;;2.50;0.80;;;;;;;;;;5118228;27;20221;-78
2022/01/04 13:44:23;;;;;;;3.87;0.70;;;;;;;;;;5124372;27;20220;-78
2022/01/04 13:46:52;;;;;;;2.43;0.70;;;;;;;;;;5121508;27;20207;-79
2022/01/04 13:49:26;;;;;;;3.27;0.90;;;;;;;;;;5124226;27;20305;-79
2022/01/04 13:51:53;;;;;;;3.90;1.00;;;;;;;;;;5122140;27;20206;-78
2022/01/04 13:54:21;;;;;;;3.43;1.00;;;;;;;;;;5121284;27;20265;-79
2022/01/04 13:56:49;;;;;;;3.53;0.77;;;;;;;;;;5120936;27;20222;-79
2022/01/04 13:59:21;;;;;;;2.47;0.77;;;;;;;;;;5124983;27;20197;-79
2022/01/04 14:01:53;;;;;;;4.00;1.20;;;;;;;;;;5123934;27;20229;-79
2022/01/04 14:04:22;;;;;;;4.07;0.90;;;;;;;;;;5119997;27;20195;-78
2022/01/04 14:06:50;;;;;;;4.17;1.30;;;;;;;;;;5115863;27;20196;-78
2022/01/04 14:09:25;;;;;;;4.47;1.00;;;;;;;;;;5115743;27;20252;-78
2022/01/04 14:11:54;;;;;;;6.83;1.10;;;;;;;;;;5122236;27;20239;-78
2022/01/04 14:14:21;;;;;;;5.03;1.20;;;;;;;;;;5120623;27;20229;-78
2022/01/04 14:16:50;;;;;;;5.27;1.23;;;;;;;;;;5116965;27;20633;-78
2022/01/04 14:19:18;;;;;;;3.77;0.80;;;;;;;;;;5113749;28;20194;-78
2022/01/04 14:21:47;;;;;;;4.77;1.00;;;;;;;;;;5112647;28;20208;-78
2022/01/04 14:24:48;;;;;;;2.43;0.67;;;;;;;;;;5113227;28;20284;-78
2022/01/04 14:27:26;;;;;;;6.33;0.80;;;;;;;;;;5050534;28;20227;-78
2022/01/04 14:29:57;;;;;;;4.33;0.90;;;;;;;;;;5049786;28;20273;-78
2022/01/04 14:32:25;;;;;;;3.40;0.90;;;;;;;;;;5050113;28;20286;-78
2022/01/04 14:34:54;;;;;;;5.30;1.27;;;;;;;;;;5048708;28;20287;-78
2022/01/04 14:37:23;;;;;;;3.03;0.73;;;;;;;;;;5050109;28;20231;-78
2022/01/04 14:39:51;;;;;;;4.30;1.07;;;;;;;;;;5049616;28;20199;-78
2022/01/04 14:42:18;;;;;;;2.93;1.00;;;;;;;;;;5050020;28;20826;-78
2022/01/04 14:44:45;;;;;;;4.93;1.00;;;;;;;;;;5050075;28;20385;-79
2022/01/04 14:47:12;;;;;;;4.70;1.07;;;;;;;;;;5049484;28;20651;-77
2022/01/04 14:49:39;;;;;;;4.20;1.30;;;;;;;;;;5042350;28;20256;-78
2022/01/04 14:52:08;;;;;;;7.43;1.40;;;;;;;;;;5046716;28;20762;-77
2022/01/04 14:54:37;;;;;;;4.13;1.10;;;;;;;;;;5049951;28;20207;-78
2022/01/04 14:57:04;;;;;;;5.53;1.10;;;;;;;;;;5048399;28;20255;-77